createdAt,value
2019-05-28T00:01:09.926Z,96159.37
2019-05-28T00:06:05.779Z,96157.17
2019-05-28T00:11:01.920Z,96160.52
2019-05-28T00:15:57.861Z,96152.87
2019-05-28T00:20:53.664Z,96158.50
2019-05-28T00:25:49.533Z,96154.78
2019-05-28T00:30:45.373Z,96149.34
2019-05-28T00:35:41.271Z,96142.88
2019-05-28T00:40:37.198Z,96140.67
2019-05-28T00:45:35.570Z,96135.27
2019-05-28T00:50:33.914Z,96127.88
2019-05-28T00:55:36.337Z,96124.53
2019-05-28T01:00:52.640Z,96119.23
2019-05-28T01:05:48.801Z,96114.83
2019-05-28T01:10:46.451Z,96109.55
2019-05-28T01:15:42.447Z,96112.06
2019-05-28T01:20:38.502Z,96105.59
2019-05-28T01:25:37.416Z,96099.97
2019-05-28T01:30:33.444Z,96097.83
2019-05-28T01:35:29.248Z,96099.84
2019-05-28T01:45:28.035Z,96096.28
2019-05-28T01:50:23.913Z,96089.85
2019-05-28T01:55:19.822Z,96087.38
2019-05-28T02:00:16.731Z,96082.13
2019-05-28T02:05:13.981Z,96075.67
2019-05-28T02:10:10.909Z,96075.50
2019-05-28T02:15:08.783Z,96075.32
2019-05-28T02:20:05.716Z,96087.70
2019-05-28T02:25:01.648Z,96072.20
2019-05-28T02:29:58.155Z,96076.48
2019-05-28T02:34:54.458Z,96074.52
2019-05-28T02:40:01.578Z,96078.47
2019-05-28T02:44:57.703Z,96080.62
2019-05-28T02:49:53.818Z,96077.46
2019-05-28T02:54:49.982Z,96081.78
2019-05-28T02:59:49.072Z,96076.98
2019-05-28T03:04:47.549Z,96079.13
2019-05-28T03:09:46.685Z,96072.21
2019-05-28T03:14:42.633Z,96073.18
2019-05-28T03:19:40.424Z,96065.92
2019-05-28T03:24:40.936Z,96068.39
2019-05-28T03:29:37.137Z,96069.38
2019-05-28T03:34:34.309Z,96073.35
2019-05-28T03:39:32.440Z,96065.59
2019-05-28T03:44:28.558Z,96073.84
2019-05-28T03:49:24.662Z,96069.56
2019-05-28T03:54:21.766Z,96071.22
2019-05-28T03:59:18.247Z,96067.89
2019-05-28T04:04:16.870Z,96071.84
2019-05-28T04:09:14.667Z,96065.59
2019-05-28T04:14:10.566Z,96064.45
2019-05-28T04:19:07.163Z,96055.55
2019-05-28T04:24:03.183Z,96056.02
2019-05-28T04:28:59.145Z,96044.14
2019-05-28T04:33:58.093Z,96048.95
2019-05-28T04:39:35.285Z,96049.45
2019-05-28T04:44:31.397Z,96055.72
2019-05-28T04:49:34.197Z,96055.39
2019-05-28T05:06:57.203Z,96052.07
2019-05-28T05:12:54.776Z,96053.22
2019-05-28T05:17:50.900Z,96054.22
2019-05-28T05:22:46.827Z,96070.89
2019-05-28T05:28:16.665Z,96076.27
2019-05-28T05:33:45.576Z,96081.66
2019-05-28T05:38:41.707Z,96092.80
2019-05-28T05:43:37.990Z,96103.44
2019-05-28T05:48:33.979Z,96122.27
2019-05-28T05:53:29.992Z,96120.92
2019-05-28T05:58:25.968Z,96122.53
2019-05-28T06:03:39.045Z,96126.82
2019-05-28T06:08:22.824Z,96129.61
2019-05-28T06:13:19.128Z,96130.22
2019-05-28T06:18:19.665Z,96129.63
2019-05-28T06:23:15.895Z,96133.48
2019-05-28T06:28:12.077Z,96141.94
2019-05-28T06:33:08.435Z,96139.65
2019-05-28T06:38:04.843Z,96140.16
2019-05-28T06:43:02.801Z,96138.70
2019-05-28T06:47:59.419Z,96153.03
2019-05-28T06:52:56.062Z,96156.52
2019-05-28T06:57:55.228Z,96169.88
2019-05-28T07:02:51.712Z,96177.01
2019-05-28T07:07:47.823Z,96184.94
2019-05-28T07:12:44.065Z,96187.80
2019-05-28T07:17:42.735Z,96198.20
2019-05-28T07:22:40.854Z,96199.17
2019-05-28T07:27:46.360Z,96200.48
2019-05-28T07:32:42.840Z,96207.22
2019-05-28T07:37:47.213Z,96207.75
2019-05-28T07:43:06.082Z,96206.93
2019-05-28T07:48:03.748Z,96212.67
2019-05-28T07:53:02.175Z,96209.93
2019-05-28T07:57:58.550Z,96215.70
2019-05-28T08:02:55.317Z,96215.36
2019-05-28T08:07:54.637Z,96219.98
2019-05-28T08:12:51.020Z,96223.98
2019-05-28T08:17:47.204Z,96220.31
2019-05-28T08:22:43.783Z,96223.45
2019-05-28T08:27:40.422Z,96232.63
2019-05-28T08:32:36.484Z,96227.97
2019-05-28T08:37:32.579Z,96235.35
2019-05-28T08:42:30.499Z,96242.14
2019-05-28T08:47:27.124Z,96245.93
2019-05-28T08:52:23.559Z,96247.05
2019-05-28T08:57:19.746Z,96261.78
2019-05-28T09:02:28.008Z,96264.08
2019-05-28T09:07:17.369Z,96269.06
2019-05-28T09:12:13.663Z,96284.59
2019-05-28T09:17:09.544Z,96292.27
2019-05-28T09:22:07.900Z,96303.03
2019-05-28T09:27:03.945Z,96316.37
2019-05-28T09:32:00.198Z,96317.05
2019-05-28T09:36:56.327Z,96318.09
2019-05-28T09:41:53.904Z,96325.95
2019-05-28T09:46:50.276Z,96333.16
2019-05-28T09:51:46.530Z,96338.65
2019-05-28T09:56:43.405Z,96352.49
2019-05-28T10:01:40.294Z,96357.66
2019-05-28T10:06:41.550Z,96374.11
2019-05-28T10:11:36.211Z,96381.55
2019-05-28T10:16:32.568Z,96392.95
2019-05-28T10:21:29.024Z,96387.97
2019-05-28T10:26:25.299Z,96383.58
2019-05-28T10:31:21.481Z,96382.64
2019-05-28T10:36:34.468Z,96383.14
2019-05-28T10:41:16.418Z,96389.27
2019-05-28T10:46:13.210Z,96388.44
2019-05-28T10:51:09.969Z,96394.95
2019-05-28T10:56:06.706Z,96396.20
2019-05-28T11:01:03.638Z,96402.30
2019-05-28T11:06:00.259Z,96395.95
2019-05-28T11:11:02.566Z,96400.66
2019-05-28T11:16:01.846Z,96399.80
2019-05-28T11:21:02.580Z,96401.31
2019-05-28T11:25:58.977Z,96411.20
2019-05-28T11:30:56.651Z,96408.43
2019-05-28T11:35:52.951Z,96412.89
2019-05-28T11:40:51.766Z,96415.59
2019-05-28T11:45:48.287Z,96413.11
2019-05-28T11:50:44.815Z,96405.42
2019-05-28T11:55:40.993Z,96407.67
2019-05-28T12:00:37.590Z,96412.61
2019-05-28T12:05:33.820Z,96417.31
2019-05-28T12:10:30.847Z,96414.27
2019-05-28T12:15:27.322Z,96408.97
2019-05-28T12:20:24.423Z,96409.27
2019-05-28T12:25:21.390Z,96413.17
2019-05-28T12:30:19.779Z,96401.83
2019-05-28T12:35:29.589Z,96397.22
2019-05-28T12:40:55.781Z,96392.53
2019-05-28T12:46:39.058Z,96397.27
2019-05-28T12:51:36.307Z,96405.27
2019-05-28T12:56:34.246Z,96400.52
2019-05-28T13:01:30.822Z,96403.47
2019-05-28T13:06:26.947Z,96396.87
2019-05-28T13:11:23.214Z,96403.84
2019-05-28T13:16:19.197Z,96400.78
2019-05-28T13:21:15.546Z,96405.93
2019-05-28T13:26:14.597Z,96404.61
2019-05-28T13:31:10.360Z,96411.95
2019-05-28T13:36:06.550Z,96422.11
2019-05-28T13:41:02.813Z,96430.37
2019-05-28T13:45:59.349Z,96430.10
2019-05-28T13:50:59.094Z,96442.78
2019-05-28T13:55:58.177Z,96437.84
2019-05-28T14:00:55.312Z,96441.17
2019-05-28T14:05:54.526Z,96445.36
2019-05-28T14:10:53.102Z,96441.85
2019-05-28T14:15:54.049Z,96447.16
2019-05-28T14:20:51.275Z,96443.32
2019-05-28T14:26:02.881Z,96442.31
2019-05-28T14:31:13.691Z,96437.08
2019-05-28T14:36:34.589Z,96439.03
2019-05-28T14:47:44.225Z,96447.00
2019-05-28T15:04:42.381Z,96471.22
2019-05-28T15:09:46.479Z,96484.58
2019-05-28T15:20:53.106Z,96492.17
2019-05-28T15:25:49.250Z,96488.53
2019-05-28T15:30:45.417Z,96494.42
2019-05-28T15:35:41.528Z,96499.71
2019-05-28T15:40:37.405Z,96490.27
2019-05-28T15:45:33.375Z,96505.23
2019-05-28T15:50:32.377Z,96514.95
2019-05-28T15:55:28.413Z,96524.17
2019-05-28T16:00:25.537Z,96532.80
2019-05-28T16:05:21.735Z,96540.76
2019-05-28T16:10:18.154Z,96548.46
2019-05-28T16:15:23.055Z,96550.17
2019-05-28T16:20:19.501Z,96558.92
2019-05-28T16:25:16.972Z,96569.61
2019-05-28T16:30:15.001Z,96570.86
2019-05-28T16:35:12.925Z,96571.44
2019-05-28T16:40:15.802Z,96566.75
2019-05-28T16:45:11.646Z,96573.41
2019-05-28T16:50:08.433Z,96571.08
2019-05-28T16:55:04.407Z,96573.92
2019-05-28T17:00:00.282Z,96574.84
2019-05-28T17:04:56.656Z,96583.38
2019-05-28T17:09:52.741Z,96584.16
2019-05-28T17:15:20.341Z,96585.44
2019-05-28T17:20:19.141Z,96596.88
2019-05-28T17:25:30.556Z,96601.18
2019-05-28T17:30:50.102Z,96606.52
2019-05-28T17:35:46.287Z,96612.69
2019-05-28T17:40:48.586Z,96606.90
2019-05-28T17:45:43.116Z,96606.19
2019-05-28T17:50:39.337Z,96621.69
2019-05-28T17:55:37.125Z,96631.22
2019-05-28T18:32:25.090Z,96664.74
2019-05-28T18:37:52.193Z,96664.86
2019-05-28T18:43:53.011Z,96672.66
2019-05-28T18:48:49.261Z,96691.22
2019-05-28T18:53:47.958Z,96695.55
2019-05-28T18:58:44.270Z,96698.27
2019-05-28T19:03:40.263Z,96711.26
2019-05-28T19:08:36.553Z,96722.19
2019-05-28T19:13:35.631Z,96728.77
2019-05-28T19:18:32.136Z,96732.11
2019-05-28T19:23:28.327Z,96735.61
2019-05-28T19:28:24.536Z,96749.15
2019-05-28T19:33:20.872Z,96750.81
2019-05-28T19:38:17.610Z,96751.63
2019-05-28T19:43:24.448Z,96762.23
2019-05-28T19:48:52.363Z,96761.17
2019-05-28T19:53:50.771Z,96761.11
2019-05-28T20:00:18.387Z,96767.08
2019-05-28T20:05:08.287Z,96770.42
2019-05-28T20:12:50.111Z,96784.61
2019-05-28T20:16:28.042Z,96797.63
2019-05-28T20:21:24.278Z,96784.61
2019-05-28T20:26:29.866Z,96797.03
2019-05-28T20:31:37.659Z,96804.33
2019-05-28T20:36:43.488Z,96809.08
2019-05-28T20:41:50.622Z,96825.47
2019-05-28T20:46:47.005Z,96826.13
2019-05-28T20:51:52.114Z,96840.63
2019-05-28T20:56:49.807Z,96841.59
2019-05-28T21:02:01.365Z,96847.20
2019-05-28T21:06:58.679Z,96846.30
2019-05-28T21:12:20.419Z,96852.57
2019-05-28T21:17:20.765Z,96854.12
2019-05-28T21:22:26.608Z,96856.99
2019-05-28T21:27:17.521Z,96868.61
2019-05-28T21:32:13.388Z,96864.28
2019-05-28T21:37:09.224Z,96864.16
2019-05-28T21:42:05.128Z,96869.33
2019-05-28T21:47:02.507Z,96859.30
2019-05-28T21:51:58.847Z,96861.92
2019-05-28T21:56:55.231Z,96864.55
2019-05-28T22:01:51.340Z,96860.13
2019-05-28T22:06:47.272Z,96865.01
2019-05-28T22:11:43.130Z,96860.59
2019-05-28T22:16:45.162Z,96863.95
2019-05-28T22:21:41.056Z,96856.81
2019-05-28T22:26:37.007Z,96862.03
2019-05-28T22:31:33.080Z,96862.05
2019-05-28T22:36:28.899Z,96865.73
2019-05-28T22:41:24.765Z,96867.50
2019-05-28T22:46:20.576Z,96862.75
2019-05-28T22:51:16.606Z,96867.77
2019-05-28T22:56:12.531Z,96872.09
2019-05-28T23:01:08.760Z,96876.13
2019-05-28T23:06:05.438Z,96877.31
2019-05-28T23:11:04.758Z,96873.63
2019-05-28T23:15:59.876Z,96875.64
2019-05-28T23:20:55.918Z,96863.97
2019-05-28T23:25:51.714Z,96872.92
2019-05-28T23:30:47.562Z,96870.27
2019-05-28T23:35:43.573Z,96875.07
2019-05-28T23:40:39.460Z,96878.40
2019-05-28T23:45:35.259Z,96894.48
2019-05-28T23:50:31.094Z,96881.63
2019-05-28T23:55:27.104Z,96893.08
